7OK9 weather

St John Heliport
Tulsa, Oklahoma, United States

Public forecast

Using degrees Fahrenheit for public forecast. Weather courtesy of forecast.io.

METAR (pilot weather report)

Closest report is Tulsa International Airport, 5.4 nm (10.0 km) NE. Retrieved 2019/04/19 17:53 UTC (38 minutes ago):

KTUL 191753Z 32016G22KT 10SM SCT055 16/03 A3003 RMK AO2 SLP167 T01610033 10178 20100 58005

TAF (pilot weather forecast)

Closest forecast is Tulsa International Airport, 5.4 nm (10.0 km) NE. Retrieved 2019/04/19 18:22 UTC (9 minutes ago):

TAF KTUL 191720Z 1918/2018 34015G25KT P6SM SCT060 FM200000 VRB04KT P6SM SKC